Mozdok, Russia
Current Conditions -  °F | °C
As of 10:00 PM on Friday 21 Nov 2014 (Local Time) from URMN Reporting Station
Light Snow Light Snow  
Wind Chill: 32°   Ceiling: 200
Heat Index: 32°   Visibility: 1.2mi
Dew Point: 32°   Wind: 0mph
Humidity: 100%   Direction: NA
Pressure: 30.12"   Gusts: NA
Location:  43.75°N, 44.65°E
Report Text: URMN 211900Z 00000MPS 2000 -SG BR OVC002 00/M00 Q1020 NOSIG RMKQBB070 MT OBSC OBST OBSC QFE728 SC05
Loading
Personal Weather Stations






























Interactive Weather Map New forecast layout! Learn more

10-Day Weather Forecast

Advertisements
Track Severe Weather on mobile